Time;durP1;ratioP1;P1;durP2;ratioP2;P2;SDS_P1;SDS_P2;PMS_P1;PMS_P2;Temp;Humidity;BMP_temperature;BMP_pressure;BME280_temperature;BME280_humidity;BME280_pressure;Samples;Min_cycle;Max_cycle;Signal;HPM_P1;HPM_P2
2021/12/13 00:00:12;;;;;;;83.50;27.27;;;8.50;99.90;;;;;;12464163;28;20045;-88
2021/12/13 00:06:22;;;;;;;80.03;26.88;;;8.50;99.90;;;;;;12459340;28;20041;-87
2021/12/13 00:12:33;;;;;;;78.35;27.27;;;8.50;99.90;;;;;;12456265;28;20611;-88
2021/12/13 00:18:46;;;;;;;83.22;29.45;;;8.50;99.90;;;;;;12461610;28;20696;-88
2021/12/13 00:24:51;;;;;;;76.60;28.23;;;8.60;99.90;;;;;;12472186;28;20687;-89
2021/12/13 00:31:17;;;;;;;79.30;29.50;;;8.60;99.90;;;;;;12454072;28;20074;-88
2021/12/13 00:37:30;;;;;;;86.65;28.83;;;8.70;99.90;;;;;;12453798;28;20049;-88
2021/12/13 00:43:57;;;;;;;87.63;29.60;;;8.70;99.90;;;;;;12476133;28;20489;-86
2021/12/13 00:50:10;;;;;;;91.32;30.90;;;8.70;99.90;;;;;;12487836;28;20506;-87
2021/12/13 00:56:44;;;;;;;80.60;28.40;;;8.60;99.90;;;;;;12473303;28;20045;-88
2021/12/13 01:02:56;;;;;;;83.95;29.58;;;8.70;99.90;;;;;;12461876;28;20135;-87
2021/12/13 01:09:36;;;;;;;84.63;27.73;;;8.70;99.90;;;;;;12469807;28;20045;-88
2021/12/13 01:15:48;;;;;;;82.30;28.23;;;8.70;99.90;;;;;;12457177;28;20314;-87
2021/12/13 01:22:20;;;;;;;90.85;29.08;;;8.70;99.90;;;;;;12456930;28;20410;-87
2021/12/13 01:28:37;;;;;;;108.13;32.92;;;8.70;99.90;;;;;;12450307;28;20092;-89
2021/12/13 01:34:39;;;;;;;112.97;33.88;;;8.80;99.90;;;;;;12448726;28;20045;-88
2021/12/13 01:40:47;;;;;;;113.43;34.15;;;8.80;99.90;;;;;;12438408;28;20203;-88
2021/12/13 01:46:57;;;;;;;133.93;37.08;;;8.80;99.90;;;;;;12455595;28;20527;-88
2021/12/13 01:53:00;;;;;;;144.10;38.15;;;8.80;99.90;;;;;;12406999;28;20045;-87
2021/12/13 01:59:16;;;;;;;129.10;37.60;;;8.90;99.90;;;;;;12422537;28;20494;-88
2021/12/13 02:05:22;;;;;;;133.32;38.08;;;8.90;99.90;;;;;;12411240;28;20525;-88
2021/12/13 02:11:27;;;;;;;141.27;38.97;;;8.80;99.90;;;;;;12428944;28;20065;-88
2021/12/13 02:17:31;;;;;;;127.25;36.97;;;8.90;99.90;;;;;;12415093;28;20505;-89
2021/12/13 02:23:40;;;;;;;119.43;34.87;;;8.90;99.90;;;;;;12417375;28;20053;-88
2021/12/13 02:29:43;;;;;;;116.70;35.47;;;8.80;99.90;;;;;;12421299;28;20140;-88
2021/12/13 02:35:53;;;;;;;102.22;34.05;;;8.90;99.90;;;;;;12413194;28;20046;-88
2021/12/13 02:41:57;;;;;;;102.80;33.72;;;8.90;99.90;;;;;;12415145;28;20200;-87
2021/12/13 02:48:08;;;;;;;107.53;34.78;;;8.80;99.90;;;;;;12421772;28;20049;-87
2021/12/13 02:54:10;;;;;;;109.45;32.90;;;8.90;99.90;;;;;;12457665;28;20049;-88
2021/12/13 03:00:14;;;;;;;107.88;34.53;;;8.90;99.90;;;;;;12445723;28;20046;-88
2021/12/13 03:06:22;;;;;;;103.70;33.58;;;9.00;99.90;;;;;;12448714;28;20589;-89
2021/12/13 03:12:28;;;;;;;105.57;32.88;;;8.90;99.90;;;;;;12469483;28;20498;-87
2021/12/13 03:18:40;;;;;;;101.63;31.60;;;8.90;99.90;;;;;;12447800;28;20061;-88
2021/12/13 03:25:06;;;;;;;94.63;30.38;;;8.90;99.90;;;;;;12456210;28;20045;-87
2021/12/13 03:31:15;;;;;;;104.82;32.03;;;8.90;99.90;;;;;;12453018;28;21463;-88
2021/12/13 03:37:22;;;;;;;106.78;33.03;;;8.90;99.90;;;;;;12456801;28;20045;-88
2021/12/13 03:43:33;;;;;;;113.47;32.85;;;8.90;99.90;;;;;;12459270;28;20057;-87
2021/12/13 03:49:44;;;;;;;115.88;33.78;;;8.90;99.90;;;;;;12460274;28;20140;-88
2021/12/13 03:55:52;;;;;;;113.32;35.10;;;8.90;99.90;;;;;;12469759;28;20513;-88
2021/12/13 04:02:01;;;;;;;114.53;33.35;;;8.90;99.90;;;;;;12472078;28;20098;-87
2021/12/13 04:08:08;;;;;;;108.32;32.25;;;8.90;99.90;;;;;;12472726;28;20473;-88
2021/12/13 04:14:18;;;;;;;116.07;32.40;;;8.90;99.90;;;;;;12476836;28;20591;-88
2021/12/13 04:20:24;;;;;;;121.82;33.42;;;8.90;99.90;;;;;;12463780;28;20049;-88
2021/12/13 04:26:28;;;;;;;115.93;31.95;;;9.00;99.90;;;;;;12455664;28;20690;-88
2021/12/13 04:32:34;;;;;;;132.70;34.78;;;8.90;99.90;;;;;;12453209;28;20049;-89
2021/12/13 04:38:51;;;;;;;106.53;31.23;;;8.90;99.90;;;;;;12455101;28;20076;-87
2021/12/13 04:44:59;;;;;;;104.85;31.98;;;8.80;99.90;;;;;;12465541;28;20073;-88
2021/12/13 04:51:08;;;;;;;102.45;31.00;;;8.90;99.90;;;;;;12453317;28;20562;-88
2021/12/13 04:57:10;;;;;;;90.18;28.70;;;8.80;99.90;;;;;;12453208;28;20081;-88
2021/12/13 05:03:15;;;;;;;97.80;29.85;;;8.90;99.90;;;;;;12448128;28;20096;-88
2021/12/13 05:09:20;;;;;;;93.28;31.20;;;8.90;99.90;;;;;;12455308;28;20053;-87
2021/12/13 05:15:25;;;;;;;78.90;27.65;;;8.90;99.90;;;;;;12453680;28;20502;-88
2021/12/13 05:21:41;;;;;;;82.25;27.48;;;8.80;99.90;;;;;;12468088;28;20071;-88
2021/12/13 05:27:43;;;;;;;66.93;24.60;;;8.90;99.90;;;;;;12474264;28;20049;-89
2021/12/13 05:33:50;;;;;;;57.45;22.05;;;9.00;99.90;;;;;;12463542;28;20055;-88
2021/12/13 05:40:01;;;;;;;57.38;22.20;;;9.00;99.90;;;;;;12460375;28;20061;-89
2021/12/13 05:46:04;;;;;;;52.50;21.35;;;9.00;99.90;;;;;;12458744;28;20505;-87
2021/12/13 05:52:10;;;;;;;57.33;22.40;;;8.90;99.90;;;;;;12474426;28;20124;-88
2021/12/13 05:58:13;;;;;;;60.17;22.58;;;8.90;99.90;;;;;;12490888;28;20307;-88
2021/12/13 06:04:31;;;;;;;56.63;22.67;;;8.90;99.90;;;;;;12454974;28;20052;-88
2021/12/13 06:10:55;;;;;;;61.13;23.30;;;8.80;99.90;;;;;;12464802;28;20067;-88
2021/12/13 06:17:18;;;;;;;59.63;24.27;;;8.80;99.90;;;;;;12460305;28;20059;-87
2021/12/13 06:23:24;;;;;;;66.22;25.80;;;8.70;99.90;;;;;;12473474;28;20057;-88
2021/12/13 06:29:45;;;;;;;67.68;27.15;;;8.70;99.90;;;;;;12476810;28;20080;-89
2021/12/13 06:36:00;;;;;;;63.63;26.52;;;8.70;99.90;;;;;;12461186;28;20167;-87
2021/12/13 06:42:06;;;;;;;67.35;27.95;;;8.80;99.90;;;;;;12469042;28;20143;-87
2021/12/13 06:48:10;;;;;;;70.70;28.20;;;8.80;99.90;;;;;;12473771;28;20065;-88
2021/12/13 06:54:37;;;;;;;72.43;30.00;;;8.70;99.90;;;;;;12457765;28;20049;-88
2021/12/13 07:00:39;;;;;;;73.53;30.42;;;8.70;99.90;;;;;;12453438;28;20553;-87
2021/12/13 07:06:41;;;;;;;71.80;29.90;;;8.70;99.90;;;;;;12470128;28;20057;-88
2021/12/13 07:12:57;;;;;;;70.70;29.98;;;8.70;99.90;;;;;;12470189;28;20045;-87
2021/12/13 07:19:06;;;;;;;71.50;29.98;;;8.70;99.90;;;;;;12471609;28;20041;-89
2021/12/13 07:25:15;;;;;;;74.30;30.73;;;8.60;99.90;;;;;;12458598;28;20072;-88
2021/12/13 07:31:18;;;;;;;81.28;32.60;;;8.60;99.90;;;;;;12457152;28;20049;-88
2021/12/13 07:37:52;;;;;;;81.75;34.15;;;8.60;99.90;;;;;;12463320;28;20084;-88
2021/12/13 07:43:54;;;;;;;88.87;35.27;;;8.60;99.90;;;;;;12461133;28;20606;-89
2021/12/13 07:50:02;;;;;;;83.47;35.38;;;8.70;99.90;;;;;;12465551;28;20414;-90
2021/12/13 07:56:05;;;;;;;87.20;37.42;;;8.70;99.90;;;;;;12475593;28;20053;-88
2021/12/13 08:02:17;;;;;;;81.03;33.75;;;8.70;99.90;;;;;;12461133;28;20103;-88
2021/12/13 08:08:26;;;;;;;84.53;35.65;;;8.60;99.90;;;;;;12478481;28;20112;-88
2021/12/13 08:14:37;;;;;;;81.05;34.38;;;8.70;99.90;;;;;;12457298;28;20115;-88
2021/12/13 08:20:49;;;;;;;84.38;36.42;;;8.70;99.90;;;;;;12468713;28;20730;-88
2021/12/13 08:27:01;;;;;;;74.40;34.50;;;8.60;99.90;;;;;;12462150;28;20061;-89
2021/12/13 08:33:11;;;;;;;74.10;33.67;;;8.60;99.90;;;;;;12474762;28;20053;-89
2021/12/13 08:39:15;;;;;;;85.88;37.75;;;8.60;99.90;;;;;;12459874;28;20057;-90
2021/12/13 08:45:32;;;;;;;95.35;38.92;;;8.60;99.90;;;;;;12460122;28;20509;-87
2021/12/13 08:51:34;;;;;;;85.28;37.42;;;8.60;99.90;;;;;;12439653;28;20046;-87
2021/12/13 08:57:57;;;;;;;90.65;38.72;;;8.60;99.90;;;;;;12424881;28;20057;-88
2021/12/13 09:04:01;;;;;;;88.47;38.63;;;8.60;99.90;;;;;;12419669;28;20045;-89
2021/12/13 09:10:04;;;;;;;93.20;38.53;;;8.60;99.90;;;;;;12411458;28;20478;-89
2021/12/13 09:16:09;;;;;;;90.00;38.42;;;8.60;99.90;;;;;;12415775;28;20049;-89
2021/12/13 09:22:22;;;;;;;90.85;39.72;;;8.60;99.90;;;;;;12411057;28;20143;-90
2021/12/13 09:28:32;;;;;;;96.43;41.90;;;8.60;99.90;;;;;;12413176;28;20050;-88
2021/12/13 09:34:34;;;;;;;93.78;40.63;;;8.60;99.90;;;;;;12427756;28;20328;-89
2021/12/13 09:40:41;;;;;;;98.13;40.97;;;8.60;99.90;;;;;;12408214;28;20041;-89
2021/12/13 09:46:55;;;;;;;91.63;39.88;;;8.60;99.90;;;;;;12420022;28;20140;-89
2021/12/13 09:53:03;;;;;;;94.90;38.80;;;8.60;99.90;;;;;;12413956;28;20546;-90
2021/12/13 09:59:46;;;;;;;86.43;37.97;;;8.60;99.90;;;;;;12412639;28;20059;-89
2021/12/13 10:05:52;;;;;;;87.47;38.67;;;8.60;99.90;;;;;;12424889;28;20395;-89
2021/12/13 10:12:02;;;;;;;84.30;36.78;;;8.60;99.90;;;;;;12419668;28;20556;-91
2021/12/13 10:18:09;;;;;;;82.68;37.10;;;8.50;99.90;;;;;;12409105;28;20603;-88
2021/12/13 10:24:23;;;;;;;77.95;36.92;;;8.60;99.90;;;;;;12412522;28;20136;-88
2021/12/13 10:30:36;;;;;;;75.15;34.67;;;8.60;99.90;;;;;;12452720;28;20554;-90
2021/12/13 10:36:41;;;;;;;78.90;36.65;;;8.60;99.90;;;;;;12407586;28;20060;-90
2021/12/13 10:42:53;;;;;;;69.38;33.25;;;8.60;99.90;;;;;;12410256;28;20099;-90
2021/12/13 10:48:59;;;;;;;65.97;33.58;;;8.60;99.90;;;;;;12417441;28;20082;-89
2021/12/13 10:55:11;;;;;;;64.30;32.13;;;8.60;99.90;;;;;;12423734;28;20052;-89
2021/12/13 11:01:20;;;;;;;55.47;31.35;;;8.50;99.90;;;;;;12427340;28;20057;-90
2021/12/13 11:07:23;;;;;;;59.92;31.45;;;8.60;99.90;;;;;;12426097;28;20572;-90
2021/12/13 11:13:30;;;;;;;56.42;30.95;;;8.60;99.90;;;;;;12416371;28;20050;-89
2021/12/13 11:19:35;;;;;;;51.47;28.75;;;8.50;99.90;;;;;;12413423;28;20056;-89
2021/12/13 11:25:44;;;;;;;51.58;29.33;;;8.50;99.90;;;;;;12413093;28;20091;-89
2021/12/13 11:32:00;;;;;;;53.05;28.35;;;8.60;99.90;;;;;;12406523;28;20053;-89
2021/12/13 11:38:26;;;;;;;48.08;27.30;;;8.50;99.90;;;;;;12416553;28;20503;-89
2021/12/13 11:44:39;;;;;;;49.30;27.25;;;8.50;99.90;;;;;;12417468;28;20052;-89
2021/12/13 11:51:08;;;;;;;44.50;26.53;;;8.50;99.90;;;;;;12431919;28;20520;-91
2021/12/13 11:57:40;;;;;;;42.33;26.85;;;8.60;99.90;;;;;;12471111;28;20486;-90
2021/12/13 12:03:54;;;;;;;41.53;26.55;;;8.60;99.90;;;;;;12467686;28;20468;-90
2021/12/13 12:10:25;;;;;;;40.92;24.52;;;8.50;99.90;;;;;;12489059;28;20171;-89
2021/12/13 12:16:28;;;;;;;36.13;23.40;;;8.50;99.90;;;;;;12462110;28;20595;-89
2021/12/13 12:23:02;;;;;;;36.17;21.08;;;8.50;99.90;;;;;;12479706;28;20047;-89
2021/12/13 12:29:12;;;;;;;35.53;20.97;;;8.50;99.90;;;;;;12469280;28;20092;-90
2021/12/13 12:35:27;;;;;;;33.80;20.10;;;8.50;99.90;;;;;;12463640;28;20059;-90
2021/12/13 12:41:44;;;;;;;30.48;20.50;;;8.50;99.90;;;;;;12469124;28;20379;-90
2021/12/13 12:48:23;;;;;;;30.40;19.60;;;8.50;99.90;;;;;;12477753;28;20674;-90
2021/12/13 12:54:25;;;;;;;30.13;18.67;;;8.60;99.90;;;;;;12465866;28;20049;-89
2021/12/13 13:00:29;;;;;;;38.05;21.00;;;8.50;99.90;;;;;;12484737;28;20048;-90
2021/12/13 13:06:31;;;;;;;28.80;19.43;;;8.50;99.90;;;;;;12487167;28;20087;-89
2021/12/13 13:12:37;;;;;;;29.17;18.35;;;8.50;99.90;;;;;;12455203;28;20308;-90
2021/12/13 13:18:41;;;;;;;29.80;18.00;;;8.50;99.90;;;;;;12467619;28;20056;-89
2021/12/13 13:24:50;;;;;;;28.15;17.50;;;8.50;99.90;;;;;;12463711;28;20528;-91
2021/12/13 13:31:00;;;;;;;28.38;17.20;;;8.40;99.90;;;;;;12460657;28;20057;-90
2021/12/13 13:37:10;;;;;;;25.48;16.27;;;8.40;99.90;;;;;;12461252;28;20057;-91
2021/12/13 13:43:15;;;;;;;26.85;16.65;;;8.40;99.90;;;;;;12510921;28;20068;-89
2021/12/13 13:49:20;;;;;;;26.40;15.90;;;8.40;99.90;;;;;;12486667;28;20064;-89
2021/12/13 13:55:27;;;;;;;24.25;15.00;;;8.40;99.90;;;;;;12479331;28;20057;-88
2021/12/13 14:01:35;;;;;;;23.65;15.32;;;8.40;99.90;;;;;;12457111;28;20385;-90
2021/12/13 14:07:39;;;;;;;26.08;15.25;;;8.40;99.90;;;;;;12463003;28;20099;-88
2021/12/13 14:13:45;;;;;;;27.67;15.57;;;8.40;99.90;;;;;;12459694;28;20209;-90
2021/12/13 14:19:51;;;;;;;24.00;15.40;;;8.40;99.90;;;;;;12460346;28;20099;-90
2021/12/13 14:26:11;;;;;;;23.90;15.20;;;8.40;99.90;;;;;;12465383;28;20049;-90
2021/12/13 14:32:14;;;;;;;26.85;15.55;;;8.30;99.90;;;;;;12473557;28;20425;-91
2021/12/13 14:38:21;;;;;;;22.88;14.80;;;8.30;99.90;;;;;;12465122;28;20306;-88
2021/12/13 14:44:28;;;;;;;25.05;15.38;;;8.30;99.90;;;;;;12497849;28;20049;-89
2021/12/13 14:50:32;;;;;;;25.10;15.38;;;8.40;99.90;;;;;;12482070;28;20053;-89
2021/12/13 14:56:34;;;;;;;23.23;14.85;;;8.30;99.90;;;;;;12459373;28;20088;-90
2021/12/13 15:02:44;;;;;;;21.35;14.23;;;8.30;99.90;;;;;;12475915;28;20046;-89
2021/12/13 15:09:04;;;;;;;21.02;13.70;;;8.30;99.90;;;;;;12457697;28;20064;-89
2021/12/13 15:15:21;;;;;;;20.55;13.65;;;8.30;99.90;;;;;;12472233;28;20095;-90
2021/12/13 15:21:27;;;;;;;21.02;13.15;;;8.30;99.90;;;;;;12468260;28;20522;-89
2021/12/13 15:27:30;;;;;;;21.63;12.73;;;8.20;99.90;;;;;;12485215;28;20160;-90
2021/12/13 15:33:40;;;;;;;18.23;11.82;;;8.20;99.90;;;;;;12480688;28;20072;-89
2021/12/13 15:39:42;;;;;;;20.45;11.20;;;8.20;99.90;;;;;;12469026;28;20057;-90
2021/12/13 15:45:53;;;;;;;18.85;11.85;;;8.20;99.90;;;;;;12463690;28;20053;-89
2021/12/13 15:52:09;;;;;;;19.60;12.07;;;8.20;99.90;;;;;;12482392;28;21676;-90
2021/12/13 15:58:36;;;;;;;18.23;11.05;;;8.20;99.90;;;;;;12486000;28;20512;-89
2021/12/13 16:04:43;;;;;;;16.70;10.27;;;8.20;99.90;;;;;;12466381;28;20136;-90
2021/12/13 16:10:45;;;;;;;17.45;11.20;;;8.10;99.90;;;;;;12478177;28;20055;-89
2021/12/13 16:16:59;;;;;;;18.80;11.23;;;8.10;99.90;;;;;;12468942;28;20056;-91
2021/12/13 16:23:22;;;;;;;19.83;10.43;;;8.10;99.90;;;;;;12470603;28;20515;-90
2021/12/13 16:29:25;;;;;;;17.52;11.27;;;8.20;99.90;;;;;;12470493;28;20049;-89
2021/12/13 16:35:32;;;;;;;24.02;11.73;;;8.20;99.90;;;;;;12464581;28;20148;-88
2021/12/13 16:41:35;;;;;;;17.35;11.43;;;8.10;99.90;;;;;;12467106;28;20049;-89
2021/12/13 16:47:37;;;;;;;19.75;10.90;;;8.10;99.90;;;;;;12465337;28;20556;-91
2021/12/13 16:53:40;;;;;;;14.25;10.13;;;8.20;99.90;;;;;;12467980;28;20093;-89
2021/12/13 16:59:54;;;;;;;17.00;10.43;;;8.10;99.90;;;;;;12466545;28;20048;-89
2021/12/13 17:05:58;;;;;;;14.73;10.32;;;8.10;99.90;;;;;;12463696;28;20049;-89
2021/12/13 17:12:07;;;;;;;18.13;12.18;;;8.10;99.90;;;;;;12481677;28;20080;-90
2021/12/13 17:18:32;;;;;;;15.15;10.50;;;8.10;99.90;;;;;;12494542;28;20081;-92
2021/12/13 17:24:39;;;;;;;19.08;11.18;;;8.20;99.90;;;;;;12478190;28;20430;-90
2021/12/13 17:30:50;;;;;;;17.90;11.85;;;8.10;99.90;;;;;;12478968;28;21040;-89
2021/12/13 17:36:52;;;;;;;14.98;10.98;;;8.00;99.90;;;;;;12463126;28;20107;-90
2021/12/13 17:43:03;;;;;;;18.67;12.82;;;8.00;99.90;;;;;;12456579;28;20052;-89
2021/12/13 17:49:05;;;;;;;19.20;12.85;;;8.00;99.90;;;;;;12461493;28;20448;-92
2021/12/13 17:55:10;;;;;;;21.63;13.25;;;8.00;99.90;;;;;;12461829;28;20127;-90
2021/12/13 18:01:19;;;;;;;18.20;12.40;;;8.00;99.90;;;;;;12472115;28;20108;-90
2021/12/13 18:07:35;;;;;;;20.75;13.85;;;8.00;99.90;;;;;;12464812;28;20045;-89
2021/12/13 18:13:44;;;;;;;21.48;14.25;;;8.00;99.90;;;;;;12465107;28;20053;-90
2021/12/13 18:20:01;;;;;;;22.98;15.35;;;8.00;99.90;;;;;;12475409;28;20053;-91
2021/12/13 18:26:22;;;;;;;23.67;15.23;;;8.00;99.90;;;;;;12479150;28;20107;-89
2021/12/13 18:32:27;;;;;;;24.33;15.40;;;8.00;99.90;;;;;;12458728;28;20063;-90
2021/12/13 18:38:32;;;;;;;24.38;14.95;;;8.00;99.90;;;;;;12459626;28;20074;-88
2021/12/13 18:44:49;;;;;;;;;;;8.00;99.90;;;;;;12460845;28;20079;-89
2021/12/13 18:51:19;;;;;;;20.05;14.00;;;8.00;99.90;;;;;;12462931;28;20268;-89
2021/12/13 18:57:23;;;;;;;23.63;14.13;;;8.00;99.90;;;;;;12463884;28;20601;-90
2021/12/13 19:03:32;;;;;;;24.88;13.98;;;7.90;99.90;;;;;;12473719;28;20049;-91
2021/12/13 19:09:42;;;;;;;24.02;13.85;;;7.90;99.90;;;;;;12475849;28;20269;-88
2021/12/13 19:15:49;;;;;;;21.55;13.55;;;8.00;99.90;;;;;;12470040;28;20056;-90
2021/12/13 19:21:58;;;;;;;20.88;12.73;;;7.90;99.90;;;;;;12472273;28;20462;-90
2021/12/13 19:28:06;;;;;;;19.38;11.88;;;8.00;99.90;;;;;;12469553;28;20610;-92
2021/12/13 19:34:31;;;;;;;22.15;11.40;;;7.90;99.90;;;;;;12483144;28;22964;-90
2021/12/13 19:40:45;;;;;;;18.20;11.68;;;7.90;99.90;;;;;;12465247;28;20049;-89
2021/12/13 19:47:34;;;;;;;18.27;11.10;;;7.90;99.90;;;;;;12486204;28;20537;-89
2021/12/13 19:53:46;;;;;;;17.35;11.55;;;7.90;99.90;;;;;;12437818;28;20474;-90
2021/12/13 19:59:57;;;;;;;18.00;11.43;;;7.90;99.90;;;;;;12472134;28;20468;-89
2021/12/13 20:06:05;;;;;;;16.55;11.27;;;7.90;99.90;;;;;;12480552;28;20053;-91
2021/12/13 20:12:25;;;;;;;18.23;11.73;;;7.90;99.90;;;;;;12471950;28;20060;-90
2021/12/13 20:18:42;;;;;;;16.70;10.70;;;7.90;99.90;;;;;;12472485;28;20073;-90
2021/12/13 20:25:25;;;;;;;14.60;10.02;;;7.90;99.90;;;;;;12464264;28;20091;-91
2021/12/13 20:31:53;;;;;;;14.77;9.90;;;7.90;99.90;;;;;;12464297;28;20056;-88
2021/12/13 20:38:03;;;;;;;15.13;10.63;;;7.80;99.90;;;;;;12468814;28;20076;-90
2021/12/13 20:44:49;;;;;;;13.13;9.15;;;7.80;99.90;;;;;;12470125;28;20058;-91
2021/12/13 20:51:00;;;;;;;14.40;9.40;;;7.90;99.90;;;;;;12439858;28;20045;-90
2021/12/13 20:57:07;;;;;;;13.77;9.23;;;7.90;99.90;;;;;;12481977;28;20056;-89
2021/12/13 21:03:18;;;;;;;13.05;8.80;;;7.90;99.90;;;;;;12482650;28;20486;-89
2021/12/13 21:09:26;;;;;;;12.48;8.50;;;7.90;99.90;;;;;;12480828;28;20390;-91
2021/12/13 21:15:44;;;;;;;15.27;9.10;;;7.80;99.90;;;;;;12470656;28;20449;-89
2021/12/13 21:21:57;;;;;;;13.23;8.88;;;7.80;99.90;;;;;;12482531;28;20374;-89
2021/12/13 21:28:23;;;;;;;12.80;8.80;;;7.80;99.90;;;;;;12472286;28;20045;-91
2021/12/13 21:34:39;;;;;;;13.90;9.02;;;7.80;99.90;;;;;;12464286;28;20072;-90
2021/12/13 21:40:54;;;;;;;13.07;8.95;;;7.80;99.90;;;;;;12476996;28;20131;-89
2021/12/13 21:46:59;;;;;;;11.55;8.48;;;7.80;99.90;;;;;;12452351;28;20103;-91
2021/12/13 21:53:10;;;;;;;13.32;9.07;;;7.70;99.90;;;;;;12463472;28;20072;-91
2021/12/13 21:59:19;;;;;;;14.77;8.88;;;7.70;99.90;;;;;;12469191;28;20579;-88
2021/12/13 22:05:31;;;;;;;15.88;9.27;;;7.70;99.90;;;;;;12460700;28;20041;-90
2021/12/13 22:11:38;;;;;;;13.80;9.32;;;7.70;99.90;;;;;;12462456;28;20296;-89
2021/12/13 22:17:50;;;;;;;14.90;9.57;;;7.60;99.90;;;;;;12470000;28;20059;-89
2021/12/13 22:23:55;;;;;;;14.63;9.38;;;7.70;99.90;;;;;;12465736;28;20041;-89
2021/12/13 22:29:59;;;;;;;;;;;7.70;99.90;;;;;;12465146;28;20057;-90
2021/12/13 22:36:08;;;;;;;14.17;9.60;;;7.70;99.90;;;;;;12464811;28;20392;-90
2021/12/13 22:42:12;;;;;;;16.60;10.35;;;7.60;99.90;;;;;;12434099;28;20071;-90
2021/12/13 22:48:16;;;;;;;13.37;9.87;;;7.60;99.90;;;;;;12456777;28;20053;-89
2021/12/13 22:54:22;;;;;;;16.73;10.73;;;7.60;99.90;;;;;;12473997;28;20053;-90
2021/12/13 23:00:41;;;;;;;15.63;10.55;;;7.60;99.90;;;;;;12471983;28;20106;-91
2021/12/13 23:06:44;;;;;;;16.67;10.25;;;7.60;99.90;;;;;;12473777;28;20045;-89
2021/12/13 23:19:22;;;;;;;17.33;10.77;;;7.60;99.90;;;;;;12476108;28;20579;-90
2021/12/13 23:25:28;;;;;;;21.77;10.77;;;7.60;99.90;;;;;;12459853;28;20630;-90
2021/12/13 23:31:31;;;;;;;15.90;10.57;;;7.50;99.90;;;;;;12454024;28;20053;-91
2021/12/13 23:37:35;;;;;;;19.63;11.75;;;7.60;99.90;;;;;;12461712;28;20077;-91
2021/12/13 23:50:06;;;;;;;18.48;11.27;;;7.60;99.90;;;;;;12505620;28;20071;-91
2021/12/13 23:56:12;;;;;;;19.05;12.05;;;7.60;99.90;;;;;;12465183;28;20514;-91
